Duke Street, Reading, Berkshire, RG1 4RU, United Kingdom

Reading Town Centre Webcam

Live Image

Oscura's Reading Webcam is aimed out of our top floor offices in Duke Street, central Reading town centre, Berkshire. Our camera is facing South West with a view of the Reading Oracle Shopping Centre.

Previous Hours

Current weather conditions and forecast for Reading, Berkshire

When Temp Weather Wind Cloud Humidity Rain Snow
Now 9C Partly Cloudy 11mph SSW 100% 89% 0% 0%
19 Oct 07:00 9C Partly Cloudy 8mph SW 98% 91% 0% 0%
19 Oct 10:00 9C Fair 8mph SW 33% 91% 0% 0%
19 Oct 13:00 12C Fair 8mph WSW 34% 75% 0% 0%
19 Oct 16:00 13C Fair 8mph WSW 23% 70% 23% 0%
19 Oct 19:00 10C Fair 4mph WSW 25% 90% 0% 0%
19 Oct 22:00 8C Fair 4mph WSW 25% 91% 0% 0%
20 Oct 01:00 7C Fair 2mph W 49% 93% 0% 0%
20 Oct 04:00 6C Fair 0mph W 51% 93% 0% 0%
20 Oct 07:00 6C Partly Cloudy 2mph N 61% 93% 0% 0%
20 Oct 10:00 6C Partly Cloudy 6mph N 57% 91% 23% 0%
20 Oct 13:00 9C Showers 11mph NNE 59% 77% 23% 0%
20 Oct 16:00 10C Intermittent Rain 15mph NNE 85% 80% 47% 0%
20 Oct 19:00 9C Intermittent Rain 15mph NNE 84% 78% 37% 0%
20 Oct 22:00 8C Intermittent Rain 15mph NNE 100% 84% 25% 0%
21 Oct 01:00 7C Cloudy 13mph N 98% 87% 12% 0%
21 Oct 04:00 6C Partly Cloudy 13mph N 91% 89% 0% 0%
21 Oct 07:00 6C Partly Cloudy 8mph NNE 97% 96% 0% 0%
21 Oct 10:00 8C Partly Cloudy 13mph N 94% 93% 0% 0%
21 Oct 13:00 11C Intermittent Rain 13mph NNE 88% 82% 15% 0%
21 Oct 17:00 11C Partly Cloudy 13mph NNE 93% 83% 0% 0%
21 Oct 20:00 10C Intermittent Rain 8mph NNE 99% 88% 15% 0%
21 Oct 23:00 6C Partly Cloudy 8mph N 62% 92% 0% 0%
22 Oct 02:00 5C Clear 6mph N 5% 94% 0% 0%
22 Oct 05:00 4C Clear 4mph N 0% 95% 0% 0%


Oscura provide website development, web server hosting, Internet services and IT Support in Reading and the surrounding area.